createdAt,value
2018-12-15T08:35:27.455Z,23.33
2018-12-15T08:37:54.954Z,20.83
2018-12-15T08:40:22.782Z,20.13
2018-12-15T08:42:50.742Z,21.93
2018-12-15T08:45:18.611Z,20.90
2018-12-15T08:47:46.493Z,19.83
2018-12-15T08:53:35.465Z,22.50
2018-12-15T08:56:04.458Z,20.53
2018-12-15T08:58:32.874Z,18.20
2018-12-15T09:01:00.434Z,22.67
2018-12-15T09:03:32.339Z,24.00
2018-12-15T09:06:00.059Z,19.17
2018-12-15T09:08:28.058Z,19.33
2018-12-15T09:10:55.878Z,18.87
2018-12-15T09:13:23.991Z,22.73
2018-12-15T09:15:51.714Z,19.23
2018-12-15T09:18:19.600Z,19.10
2018-12-15T09:20:47.245Z,19.73
2018-12-15T09:23:14.867Z,20.97
2018-12-15T09:25:42.499Z,20.13
2018-12-15T09:28:10.081Z,21.23
2018-12-15T09:30:37.654Z,21.97
2018-12-15T09:33:05.257Z,21.27
2018-12-15T09:35:32.930Z,18.57
2018-12-15T09:38:01.420Z,21.97
2018-12-15T09:40:29.046Z,23.70
2018-12-15T09:42:57.210Z,21.80
2018-12-15T09:45:25.026Z,22.43
2018-12-15T09:47:53.070Z,21.93
2018-12-15T09:50:20.753Z,20.83
2018-12-15T09:52:48.674Z,21.87
2018-12-15T09:55:16.344Z,23.47
2018-12-15T09:57:44.188Z,19.43
2018-12-15T10:00:12.377Z,19.80
2018-12-15T10:02:40.013Z,19.00
2018-12-15T10:05:07.553Z,19.03
2018-12-15T10:07:35.086Z,20.80
2018-12-15T10:10:02.666Z,20.83
2018-12-15T10:12:30.242Z,18.60
2018-12-15T10:14:57.814Z,19.47
2018-12-15T10:17:25.441Z,18.83
2018-12-15T10:19:53.296Z,18.73
2018-12-15T10:22:21.243Z,19.53
2018-12-15T10:24:48.900Z,19.80
2018-12-15T10:27:16.842Z,17.83
2018-12-15T10:29:50.102Z,19.40
2018-12-15T10:32:23.297Z,17.33
2018-12-15T10:34:51.170Z,20.73
2018-12-15T10:37:18.944Z,19.37
2018-12-15T10:39:46.538Z,17.20
2018-12-15T10:42:14.135Z,19.67
2018-12-15T10:44:41.726Z,18.80
2018-12-15T10:47:09.315Z,18.57
2018-12-15T10:49:36.858Z,18.17
2018-12-15T10:52:04.598Z,18.90
2018-12-15T10:54:32.330Z,19.20
2018-12-15T10:57:00.009Z,19.77
2018-12-15T10:59:27.861Z,19.33
2018-12-15T11:01:55.549Z,18.00
2018-12-15T11:04:23.482Z,21.07
2018-12-15T11:06:51.334Z,19.97
2018-12-15T11:09:19.206Z,20.00
2018-12-15T11:11:47.052Z,18.50
2018-12-15T11:14:15.130Z,17.90
2018-12-15T11:16:42.871Z,17.50
2018-12-15T11:19:10.728Z,17.20
2018-12-15T11:21:38.422Z,17.67
2018-12-15T11:24:06.051Z,22.07
2018-12-15T11:26:33.671Z,18.07
2018-12-15T11:29:01.281Z,20.23
2018-12-15T11:31:28.902Z,17.27
2018-12-15T11:33:56.491Z,18.17
2018-12-15T11:36:24.223Z,16.07
2018-12-15T11:38:51.924Z,18.07
2018-12-15T11:41:19.750Z,18.07
2018-12-15T11:43:47.451Z,16.93
2018-12-15T11:46:15.354Z,17.20
2018-12-15T11:48:43.215Z,19.93
2018-12-15T11:51:11.013Z,16.07
2018-12-15T11:53:38.897Z,18.07
2018-12-15T12:01:08.223Z,16.93
2018-12-15T12:03:36.038Z,15.97
2018-12-15T12:06:03.691Z,15.63
2018-12-15T12:08:31.345Z,14.40
2018-12-15T12:10:58.922Z,17.13
2018-12-15T12:13:26.514Z,16.60
2018-12-15T12:15:54.155Z,18.60
2018-12-15T12:18:21.750Z,19.17
2018-12-15T12:20:49.667Z,17.63
2018-12-15T12:23:17.392Z,19.67
2018-12-15T12:25:47.985Z,16.90
2018-12-15T12:28:15.895Z,19.23
2018-12-15T12:30:43.541Z,17.23
2018-12-15T12:33:11.218Z,19.10
2018-12-15T12:35:38.823Z,19.30
2018-12-15T12:38:06.545Z,18.27
2018-12-15T12:40:34.241Z,23.13
2018-12-15T12:43:02.149Z,17.60
2018-12-15T12:45:30.171Z,19.63
2018-12-15T12:47:58.083Z,20.77
2018-12-15T12:50:26.463Z,18.43
2018-12-15T12:52:54.554Z,19.23
2018-12-15T12:55:22.398Z,20.13
2018-12-15T12:57:51.295Z,19.43
2018-12-15T13:00:19.299Z,19.70
2018-12-15T13:02:47.351Z,18.17
2018-12-15T13:05:15.037Z,17.60
2018-12-15T13:07:42.921Z,18.03
2018-12-15T13:10:10.770Z,18.80
2018-12-15T13:12:38.358Z,20.07
2018-12-15T13:15:06.142Z,18.60
2018-12-15T13:17:33.747Z,19.60
2018-12-15T13:20:03.756Z,20.60
2018-12-15T13:22:31.288Z,21.57
2018-12-15T13:24:58.907Z,18.20
2018-12-15T13:27:26.574Z,17.93
2018-12-15T13:29:54.170Z,17.37
2018-12-15T13:32:21.829Z,17.67
2018-12-15T13:34:49.487Z,19.10
2018-12-15T13:37:17.269Z,17.83
2018-12-15T13:39:44.953Z,17.73
2018-12-15T13:42:12.897Z,19.47
2018-12-15T13:44:40.703Z,18.57
2018-12-15T13:47:08.371Z,21.37
2018-12-15T13:49:35.889Z,17.77
2018-12-15T13:52:03.533Z,18.43
2018-12-15T13:54:31.087Z,19.97
2018-12-15T13:56:58.650Z,19.90
2018-12-15T13:59:26.306Z,19.50
2018-12-15T14:01:53.945Z,20.10
2018-12-15T14:04:21.865Z,18.83
2018-12-15T14:06:49.658Z,21.40
2018-12-15T14:09:17.208Z,21.20
2018-12-15T14:11:44.818Z,18.90
2018-12-15T14:14:12.465Z,18.90
2018-12-15T14:16:40.026Z,19.53
2018-12-15T14:19:07.801Z,18.53
2018-12-15T14:21:35.636Z,19.13
2018-12-15T14:29:07.135Z,21.03
2018-12-15T14:31:35.125Z,21.60
2018-12-15T14:34:03.049Z,22.30
2018-12-15T14:36:31.017Z,23.80
2018-12-15T14:38:58.745Z,19.63
2018-12-15T14:41:26.469Z,18.43
2018-12-15T14:43:54.256Z,18.13
2018-12-15T14:46:21.802Z,22.03
2018-12-15T14:48:49.465Z,20.17
2018-12-15T14:51:17.003Z,21.57
2018-12-15T14:53:44.676Z,23.33
2018-12-15T14:56:12.491Z,22.03
2018-12-15T14:58:40.298Z,19.00
2018-12-15T15:01:08.154Z,21.30
2018-12-15T15:03:36.031Z,20.73
2018-12-15T15:06:04.222Z,20.57
2018-12-15T15:08:31.886Z,22.30
2018-12-15T15:10:59.618Z,22.27
2018-12-15T15:13:27.282Z,21.30
2018-12-15T15:15:55.044Z,25.10
2018-12-15T15:18:22.633Z,20.43
2018-12-15T15:20:50.250Z,20.90
2018-12-15T15:23:18.146Z,24.27
2018-12-15T15:25:45.944Z,21.60
2018-12-15T15:28:13.847Z,22.23
2018-12-15T15:30:41.591Z,25.67
2018-12-15T15:33:09.479Z,23.03
2018-12-15T15:35:37.206Z,22.97
2018-12-15T15:38:05.086Z,23.37
2018-12-15T15:40:33.046Z,24.53
2018-12-15T15:43:00.915Z,24.17
2018-12-15T15:45:28.598Z,23.37
2018-12-15T15:47:56.241Z,23.73
2018-12-15T15:50:23.903Z,24.67
2018-12-15T15:52:51.519Z,27.40
2018-12-15T15:55:19.155Z,27.27
2018-12-15T15:57:46.871Z,25.23
2018-12-15T16:00:14.615Z,24.53
2018-12-15T16:02:42.470Z,24.37
2018-12-15T16:05:11.809Z,27.40
2018-12-15T16:07:39.663Z,25.10
2018-12-15T16:10:09.609Z,24.70
2018-12-15T16:12:37.376Z,27.60
2018-12-15T16:15:06.245Z,25.90
2018-12-15T16:17:34.341Z,28.20
2018-12-15T16:20:01.939Z,27.10
2018-12-15T16:22:29.773Z,23.37
2018-12-15T16:24:57.528Z,23.13
2018-12-15T16:27:25.287Z,25.70
2018-12-15T16:29:53.306Z,27.63
2018-12-15T16:32:21.474Z,25.17
2018-12-15T16:34:49.230Z,23.20
2018-12-15T16:37:16.897Z,26.27
2018-12-15T16:39:44.561Z,25.60
2018-12-15T16:42:12.122Z,27.73
2018-12-15T16:44:39.795Z,26.53
2018-12-15T16:47:07.722Z,24.67
2018-12-15T16:49:35.459Z,21.37
2018-12-15T16:52:03.120Z,23.50
2018-12-15T16:54:30.863Z,25.27
2018-12-15T16:56:58.496Z,26.70
2018-12-15T16:59:26.439Z,27.20
2018-12-15T17:01:54.020Z,28.60
2018-12-15T17:04:21.614Z,26.00
2018-12-15T17:06:49.319Z,23.33
2018-12-15T17:09:17.024Z,26.13
2018-12-15T17:11:44.821Z,25.00
2018-12-15T17:14:12.737Z,23.90
2018-12-15T17:16:40.581Z,24.20
2018-12-15T17:19:08.598Z,23.10
2018-12-15T17:21:36.446Z,20.60
2018-12-15T17:24:04.122Z,22.33
2018-12-15T17:26:31.808Z,22.67
2018-12-15T17:28:59.532Z,24.40
2018-12-15T17:31:27.116Z,22.13
2018-12-15T17:33:54.677Z,22.20
2018-12-15T17:36:22.374Z,23.10
2018-12-15T17:38:51.055Z,24.67
2018-12-15T17:41:18.854Z,23.03
2018-12-15T17:43:46.653Z,23.70
2018-12-15T17:46:14.306Z,20.90
2018-12-15T17:48:42.018Z,21.90
2018-12-15T17:51:09.590Z,21.67
2018-12-15T17:53:37.197Z,22.60
2018-12-15T17:56:04.793Z,22.17
2018-12-15T17:58:32.400Z,19.77
2018-12-15T18:01:00.126Z,22.30
2018-12-15T18:03:27.969Z,23.00
2018-12-15T18:05:55.790Z,22.80
2018-12-15T18:08:23.582Z,19.97
2018-12-15T18:10:51.485Z,19.03
2018-12-15T18:13:19.097Z,20.70
2018-12-15T18:15:46.674Z,24.23
2018-12-15T18:18:14.234Z,21.17
2018-12-15T18:20:41.826Z,21.37
2018-12-15T18:23:09.625Z,22.03
2018-12-15T18:25:37.442Z,21.13
2018-12-15T18:28:05.257Z,19.33
2018-12-15T18:30:33.123Z,22.27
2018-12-15T18:33:00.703Z,20.43
2018-12-15T18:35:28.278Z,21.87
2018-12-15T18:37:55.831Z,23.07
2018-12-15T18:40:23.435Z,21.13
2018-12-15T18:42:51.343Z,22.17
2018-12-15T18:45:19.136Z,22.27
2018-12-15T18:47:46.897Z,22.40
2018-12-15T18:50:14.691Z,21.43
2018-12-15T18:52:42.267Z,21.13
2018-12-15T18:55:09.850Z,20.13
2018-12-15T18:57:37.388Z,23.00
2018-12-15T19:00:06.322Z,19.33
2018-12-15T19:02:34.146Z,22.33
2018-12-15T19:05:01.718Z,23.17
2018-12-15T19:07:29.557Z,20.13
2018-12-15T19:09:57.246Z,19.07
2018-12-15T19:12:25.025Z,21.00
2018-12-15T19:14:52.811Z,20.37
2018-12-15T19:17:20.438Z,23.63
2018-12-15T19:19:48.057Z,19.57
2018-12-15T19:22:15.619Z,21.23
2018-12-15T19:24:43.195Z,21.67
2018-12-15T19:27:11.034Z,19.37
2018-12-15T19:29:38.850Z,22.37
2018-12-15T19:32:06.638Z,20.93
2018-12-15T19:34:34.390Z,20.63
2018-12-15T19:37:01.962Z,21.73
2018-12-15T19:39:29.571Z,21.90
2018-12-15T19:41:57.229Z,23.43
2018-12-15T19:44:24.797Z,22.37
2018-12-15T19:46:52.765Z,20.80
2018-12-15T19:49:20.694Z,20.33
2018-12-15T19:51:48.386Z,18.33
2018-12-15T19:54:16.219Z,22.33
2018-12-15T19:56:43.871Z,21.80
2018-12-15T19:59:13.802Z,20.73
2018-12-15T20:01:42.587Z,20.87
2018-12-15T20:04:10.677Z,22.93
2018-12-15T20:06:38.434Z,22.63
2018-12-15T20:09:08.578Z,22.53
2018-12-15T20:11:36.270Z,21.53
2018-12-15T20:14:04.018Z,21.40
2018-12-15T20:16:31.920Z,22.13
2018-12-15T20:18:59.753Z,21.33
2018-12-15T20:21:27.446Z,21.63
2018-12-15T20:23:55.139Z,19.13
2018-12-15T20:26:22.690Z,23.43
2018-12-15T20:28:50.290Z,19.93
2018-12-15T20:31:17.826Z,18.83
2018-12-15T20:33:45.498Z,21.77
2018-12-15T20:36:13.258Z,22.27
2018-12-15T20:38:41.161Z,22.07
2018-12-15T20:41:08.952Z,20.97
2018-12-15T20:43:36.661Z,19.33
2018-12-15T20:46:04.224Z,26.47
2018-12-15T20:48:31.813Z,18.77
2018-12-15T20:50:59.374Z,19.67
2018-12-15T20:53:27.094Z,24.77
2018-12-15T20:55:54.877Z,21.67
2018-12-15T20:58:22.542Z,20.77
2018-12-15T21:00:50.337Z,20.67
2018-12-15T21:03:17.885Z,23.03
2018-12-15T21:05:45.470Z,19.60
2018-12-15T21:08:13.064Z,21.80
2018-12-15T21:10:40.648Z,21.17
2018-12-15T21:13:08.457Z,21.57
2018-12-15T21:15:40.397Z,22.43
2018-12-15T21:18:07.983Z,20.43
2018-12-15T21:20:35.531Z,22.37
2018-12-15T21:23:03.102Z,23.43
2018-12-15T21:25:30.980Z,23.40
2018-12-15T21:27:58.921Z,22.77
2018-12-15T21:30:26.651Z,20.60
2018-12-15T21:32:54.495Z,19.83
2018-12-15T21:35:22.317Z,22.43
2018-12-15T21:37:49.885Z,20.83
2018-12-15T21:40:17.429Z,24.17
2018-12-15T21:42:45.012Z,21.00
2018-12-15T21:45:12.727Z,27.57
2018-12-15T21:47:41.796Z,24.70
2018-12-15T21:50:09.907Z,27.43
2018-12-15T21:52:37.666Z,25.10
2018-12-15T21:55:05.353Z,26.30
2018-12-15T21:57:33.139Z,25.17
2018-12-15T22:00:00.715Z,25.47
2018-12-15T22:02:28.468Z,24.23
2018-12-15T22:04:56.161Z,23.30
2018-12-15T22:07:23.770Z,23.13
2018-12-15T22:09:51.591Z,24.33
2018-12-15T22:12:19.497Z,25.53
2018-12-15T22:14:47.278Z,24.43
2018-12-15T22:17:15.122Z,26.23
2018-12-15T22:19:42.689Z,27.67
2018-12-15T22:22:10.255Z,22.27
2018-12-15T22:24:37.895Z,24.90
2018-12-15T22:27:05.485Z,26.43
2018-12-15T22:29:33.293Z,27.93
2018-12-15T22:32:01.194Z,27.30
2018-12-15T22:34:29.102Z,28.13
2018-12-15T22:36:56.921Z,27.00
2018-12-15T22:39:24.728Z,28.87
2018-12-15T22:41:52.281Z,23.47
2018-12-15T22:44:19.885Z,25.67
2018-12-15T22:46:47.482Z,27.13
2018-12-15T22:49:15.062Z,26.97
2018-12-15T22:51:42.859Z,25.77
2018-12-15T22:54:10.676Z,28.90
2018-12-15T22:56:39.608Z,28.10
2018-12-15T22:59:07.558Z,27.53
2018-12-15T23:01:48.197Z,27.47
2018-12-15T23:04:15.793Z,25.97
2018-12-15T23:06:43.450Z,27.87
2018-12-15T23:09:11.443Z,29.80
2018-12-15T23:11:39.370Z,29.93
2018-12-15T23:14:06.974Z,30.13
2018-12-15T23:16:34.706Z,29.13
2018-12-15T23:19:02.641Z,27.53
2018-12-15T23:21:30.181Z,28.53
2018-12-15T23:23:57.718Z,27.27
2018-12-15T23:26:25.285Z,29.23
2018-12-15T23:28:52.866Z,25.93
2018-12-15T23:31:20.741Z,29.50
2018-12-15T23:33:48.703Z,25.47
2018-12-15T23:36:16.550Z,28.40
2018-12-15T23:38:44.259Z,29.00
2018-12-15T23:41:11.922Z,29.70
2018-12-15T23:43:39.503Z,28.93
2018-12-15T23:46:07.058Z,30.50
2018-12-15T23:48:34.777Z,32.87
2018-12-15T23:51:02.655Z,31.57
2018-12-15T23:53:30.499Z,29.23
2018-12-15T23:55:58.201Z,31.57
2018-12-15T23:58:25.897Z,30.37
